createdAt,value
2023-03-11T00:00:47.436Z,100860.63
2023-03-11T00:03:17.681Z,100824.66
2023-03-11T00:05:46.797Z,100841.41
2023-03-11T00:08:17.107Z,100858.06
2023-03-11T00:10:46.307Z,100841.38
2023-03-11T00:13:16.235Z,100858.94
2023-03-11T00:15:47.532Z,100864.19
2023-03-11T00:18:14.781Z,100851.94
2023-03-11T00:20:44.392Z,100829.09
2023-03-11T00:23:13.476Z,100841.41
2023-03-11T00:25:40.674Z,100858.06
2023-03-11T00:28:08.132Z,100844.03
2023-03-11T00:30:35.332Z,100850.19
2023-03-11T00:33:02.792Z,100841.41
2023-03-11T00:35:34.347Z,100860.72
2023-03-11T00:38:05.117Z,100845.78
2023-03-11T00:40:35.190Z,100862.44
2023-03-11T00:43:03.545Z,100862.47
2023-03-11T00:45:31.839Z,100844.03
2023-03-11T00:47:58.980Z,100851.94
2023-03-11T00:50:30.038Z,100863.34
2023-03-11T00:52:57.678Z,100890.50
2023-03-11T00:55:31.835Z,100878.22
2023-03-11T00:58:04.143Z,100836.13
2023-03-11T01:00:40.761Z,100853.66
2023-03-11T01:03:08.366Z,100859.81
2023-03-11T01:05:35.872Z,100861.53
2023-03-11T01:08:04.065Z,100872.97
2023-03-11T01:10:33.745Z,100864.19
2023-03-11T01:13:01.696Z,100874.69
2023-03-11T01:15:34.250Z,100890.47
2023-03-11T01:18:02.463Z,100864.16
2023-03-11T01:20:30.539Z,100860.66
2023-03-11T01:22:58.047Z,100859.75
2023-03-11T01:25:25.786Z,100873.81
2023-03-11T01:27:52.999Z,100870.28
2023-03-11T01:30:22.816Z,100867.69
2023-03-11T01:32:52.519Z,100865.91
2023-03-11T01:35:22.160Z,100836.97
2023-03-11T01:37:49.930Z,100861.53
2023-03-11T01:40:24.846Z,100876.41
2023-03-11T01:42:52.080Z,100889.59
2023-03-11T01:45:43.523Z,100886.06
2023-03-11T01:48:12.516Z,100882.56
2023-03-11T01:50:44.328Z,100878.19
2023-03-11T01:53:14.037Z,100874.69
2023-03-11T01:55:43.048Z,100870.28
2023-03-11T01:58:16.438Z,100862.38
2023-03-11T02:00:44.238Z,100882.56
2023-03-11T02:03:31.870Z,100872.06
2023-03-11T02:06:02.363Z,100849.22
2023-03-11T02:08:34.272Z,100879.91
2023-03-11T02:11:06.750Z,100863.25
2023-03-11T02:13:35.539Z,100846.63
2023-03-11T02:16:04.075Z,100844.84
2023-03-11T02:18:32.007Z,100863.28
2023-03-11T02:21:24.946Z,100867.69
2023-03-11T02:24:10.171Z,100830.81
2023-03-11T02:26:49.955Z,100879.94
2023-03-11T02:29:20.382Z,100849.22
2023-03-11T02:31:49.998Z,100836.94
2023-03-11T02:34:26.499Z,100840.50
2023-03-11T02:36:54.039Z,100832.56
2023-03-11T02:39:40.507Z,100850.13
2023-03-11T02:42:24.388Z,100838.72
2023-03-11T02:45:27.525Z,100817.69
2023-03-11T02:48:16.941Z,100852.72
2023-03-11T02:51:01.873Z,100860.63
2023-03-11T02:53:35.999Z,100851.00
2023-03-11T02:56:03.471Z,100846.63
2023-03-11T02:58:30.648Z,100825.59
2023-03-11T03:00:58.063Z,100836.09
2023-03-11T03:03:25.765Z,100847.47
2023-03-11T03:05:53.232Z,100837.88
2023-03-11T03:08:20.742Z,100821.19
2023-03-11T03:10:48.014Z,100827.31
2023-03-11T03:13:15.320Z,100839.59
2023-03-11T03:15:42.574Z,100848.38
2023-03-11T03:18:09.887Z,100831.72
2023-03-11T03:20:37.177Z,100842.22
2023-03-11T03:23:04.928Z,100844.84
2023-03-11T03:25:33.081Z,100844.84
2023-03-11T03:28:04.984Z,100857.09
2023-03-11T03:30:35.287Z,100841.38
2023-03-11T03:33:02.591Z,100833.41
2023-03-11T03:35:31.010Z,100836.09
2023-03-11T03:38:10.350Z,100853.63
2023-03-11T03:40:39.094Z,100850.97
2023-03-11T03:43:07.465Z,100837.78
2023-03-11T03:45:36.355Z,100867.63
2023-03-11T03:48:04.212Z,100851.84
2023-03-11T03:50:34.477Z,100850.91
2023-03-11T03:53:01.797Z,100869.34
2023-03-11T03:55:29.224Z,100849.19
2023-03-11T03:57:58.070Z,100843.00
2023-03-11T04:00:29.281Z,100865.81
2023-03-11T04:03:01.071Z,100864.06
2023-03-11T04:05:37.223Z,100861.41
2023-03-11T04:08:04.627Z,100878.97
2023-03-11T04:10:31.805Z,100862.31
2023-03-11T04:12:59.293Z,100869.31
2023-03-11T04:15:26.600Z,100869.28
2023-03-11T04:17:53.901Z,100867.53
2023-03-11T04:20:21.238Z,100861.44
2023-03-11T04:22:51.184Z,100865.78
2023-03-11T04:25:20.291Z,100828.91
2023-03-11T04:27:50.245Z,100860.50
2023-03-11T04:30:18.184Z,100872.84
2023-03-11T04:32:47.462Z,100885.97
2023-03-11T04:35:14.971Z,100885.06
2023-03-11T04:37:42.258Z,100887.69
2023-03-11T04:40:11.366Z,100895.59
2023-03-11T04:42:39.407Z,100892.97
2023-03-11T04:45:08.639Z,100898.22
2023-03-11T04:47:36.232Z,100891.19
2023-03-11T04:50:05.577Z,100912.22
2023-03-11T04:52:33.355Z,100901.66
2023-03-11T04:55:01.609Z,100919.22
2023-03-11T04:57:30.367Z,100920.97
2023-03-11T04:59:59.816Z,100930.56
2023-03-11T05:02:28.022Z,100912.19
2023-03-11T05:05:00.444Z,100926.19
2023-03-11T05:07:28.805Z,100921.84
2023-03-11T05:09:57.303Z,100931.47
2023-03-11T05:12:25.198Z,100928.84
2023-03-11T05:14:54.461Z,100920.06
2023-03-11T05:17:23.236Z,100920.06
2023-03-11T05:19:54.191Z,100932.34
2023-03-11T05:22:31.720Z,100928.88
2023-03-11T05:25:10.937Z,100913.97
2023-03-11T05:27:39.702Z,100919.25
2023-03-11T05:30:10.021Z,100896.38
2023-03-11T05:32:43.141Z,100916.63
2023-03-11T05:35:11.325Z,100894.72
2023-03-11T05:37:39.517Z,100906.09
2023-03-11T05:40:08.745Z,100907.84
2023-03-11T05:42:38.358Z,100917.47
2023-03-11T05:45:08.545Z,100890.28
2023-03-11T05:47:38.618Z,100919.22
2023-03-11T05:50:07.751Z,100904.22
2023-03-11T05:52:35.766Z,100930.63
2023-03-11T05:55:35.776Z,100914.78
2023-03-11T05:58:23.439Z,100928.00
2023-03-11T06:00:57.825Z,100925.31
2023-03-11T06:03:39.328Z,100943.78
2023-03-11T06:06:33.113Z,100918.31
2023-03-11T06:09:23.103Z,100936.72
2023-03-11T06:11:54.879Z,100931.47
2023-03-11T06:14:36.751Z,100918.28
2023-03-11T06:17:08.830Z,100905.97
2023-03-11T06:19:44.268Z,100935.78
2023-03-11T06:22:21.527Z,100941.94
2023-03-11T06:25:02.406Z,100938.41
2023-03-11T06:27:32.813Z,100936.66
2023-03-11T06:30:00.711Z,100941.06
2023-03-11T06:32:30.670Z,100940.16
2023-03-11T06:34:58.126Z,100940.16
2023-03-11T06:37:25.934Z,100941.91
2023-03-11T06:39:53.877Z,100906.78
2023-03-11T06:42:26.160Z,100938.34
2023-03-11T06:44:57.804Z,100941.91
2023-03-11T06:47:25.862Z,100936.59
2023-03-11T06:49:53.428Z,100924.31
2023-03-11T06:52:20.760Z,100933.03
2023-03-11T06:54:47.975Z,100956.75
2023-03-11T06:57:19.241Z,100918.03
2023-03-11T06:59:49.864Z,100951.50
2023-03-11T07:02:18.720Z,100937.41
2023-03-11T07:04:49.811Z,100948.78
2023-03-11T07:07:18.833Z,100954.09
2023-03-11T07:09:46.158Z,100947.94
2023-03-11T07:12:15.251Z,100955.84
2023-03-11T07:14:42.755Z,100963.72
2023-03-11T07:17:10.142Z,100957.56
2023-03-11T07:19:44.010Z,100960.19
2023-03-11T07:22:11.848Z,100947.03
2023-03-11T07:24:40.591Z,100948.78
2023-03-11T07:27:08.205Z,100968.03
2023-03-11T07:29:35.440Z,100949.53
2023-03-11T07:32:02.750Z,100976.75
2023-03-11T07:34:37.092Z,100977.63
2023-03-11T07:37:04.740Z,100991.59
2023-03-11T07:39:31.882Z,100985.47
2023-03-11T07:41:59.078Z,100988.09
2023-03-11T07:44:34.526Z,100981.94
2023-03-11T07:47:06.329Z,100970.50
2023-03-11T07:49:34.835Z,100988.97
2023-03-11T07:52:02.132Z,100985.44
2023-03-11T07:54:29.298Z,100992.50
2023-03-11T07:56:56.548Z,100984.56
2023-03-11T07:59:24.022Z,100998.63
2023-03-11T08:01:51.960Z,101005.63
2023-03-11T08:04:19.206Z,100996.81
2023-03-11T08:06:48.977Z,101001.22
2023-03-11T08:09:16.463Z,101009.13
2023-03-11T08:11:43.913Z,101006.47
2023-03-11T08:14:11.210Z,100998.53
2023-03-11T08:16:40.754Z,100994.13
2023-03-11T08:19:08.197Z,101026.63
2023-03-11T08:21:35.613Z,101031.94
2023-03-11T08:24:05.547Z,101036.19
2023-03-11T08:26:34.508Z,101025.81
2023-03-11T08:29:01.769Z,101018.59
2023-03-11T08:31:32.073Z,101020.38
2023-03-11T08:34:04.222Z,101022.06
2023-03-11T08:36:32.159Z,101039.75
2023-03-11T08:39:01.844Z,101044.09
2023-03-11T08:41:30.952Z,101052.91
2023-03-11T08:43:58.222Z,101050.31
2023-03-11T08:46:32.359Z,101050.31
2023-03-11T08:49:01.391Z,101050.28
2023-03-11T08:51:30.467Z,101023.91
2023-03-11T08:53:58.247Z,101056.38
2023-03-11T08:56:26.307Z,101059.91
2023-03-11T08:58:54.229Z,101060.78
2023-03-11T09:01:23.326Z,101062.53
2023-03-11T09:03:54.807Z,101073.13
2023-03-11T09:06:25.425Z,101059.94
2023-03-11T09:12:31.386Z,101059.03
2023-03-11T09:15:41.272Z,101070.47
2023-03-11T09:18:16.641Z,101073.13
2023-03-11T09:20:46.162Z,101069.66
2023-03-11T09:23:17.159Z,101072.31
2023-03-11T09:25:44.485Z,101077.50
2023-03-11T09:28:11.743Z,101074.00
2023-03-11T09:30:39.243Z,101067.06
2023-03-11T09:33:06.870Z,101076.63
2023-03-11T09:35:34.368Z,101075.78
2023-03-11T09:38:01.704Z,101076.63
2023-03-11T09:40:46.920Z,101060.75
2023-03-11T09:43:21.105Z,101057.28
2023-03-11T09:46:24.700Z,101091.53
2023-03-11T09:49:25.695Z,101087.16
2023-03-11T09:52:30.940Z,101086.22
2023-03-11T09:55:01.040Z,101080.94
2023-03-11T09:57:34.948Z,101074.69
2023-03-11T10:00:11.913Z,101074.72
2023-03-11T10:02:43.960Z,101091.44
2023-03-11T10:05:23.150Z,101085.22
2023-03-11T10:08:17.406Z,101100.22
2023-03-11T10:10:59.577Z,101095.78
2023-03-11T10:13:54.661Z,101081.69
2023-03-11T10:17:08.217Z,101092.25
2023-03-11T10:20:25.052Z,101099.38
2023-03-11T10:23:07.959Z,101091.50
2023-03-11T10:25:42.477Z,101102.94
2023-03-11T10:28:17.017Z,101099.47
2023-03-11T10:30:56.427Z,101070.44
2023-03-11T10:33:28.651Z,101081.84
2023-03-11T10:36:05.393Z,101103.81
2023-03-11T10:38:57.137Z,101105.56
2023-03-11T10:41:31.891Z,101094.09
2023-03-11T10:44:07.117Z,101077.44
2023-03-11T10:46:34.655Z,101105.69
2023-03-11T10:49:20.056Z,101094.22
2023-03-11T10:52:00.399Z,101104.81
2023-03-11T10:54:44.213Z,101104.00
2023-03-11T10:57:31.393Z,101094.38
2023-03-11T11:00:02.050Z,101080.38
2023-03-11T11:02:38.424Z,101062.75
2023-03-11T11:05:21.371Z,101098.00
2023-03-11T11:07:54.077Z,101091.06
2023-03-11T11:10:26.760Z,101107.63
2023-03-11T11:12:56.150Z,101111.19
2023-03-11T11:15:29.626Z,101117.28
2023-03-11T11:18:03.887Z,101118.94
2023-03-11T11:20:32.906Z,101122.53
2023-03-11T11:23:03.681Z,101132.19
2023-03-11T11:25:36.854Z,101118.94
2023-03-11T11:28:19.274Z,101099.56
2023-03-11T11:30:59.126Z,101114.63
2023-03-11T11:33:32.508Z,101128.66
2023-03-11T11:36:03.129Z,101129.56
2023-03-11T11:38:32.815Z,101131.38
2023-03-11T11:41:03.798Z,101130.50
2023-03-11T11:43:48.382Z,101114.75
2023-03-11T11:46:40.631Z,101139.28
2023-03-11T11:49:23.954Z,101138.47
2023-03-11T11:52:34.643Z,101129.59
2023-03-11T11:55:29.312Z,101136.66
2023-03-11T11:57:57.210Z,101127.03
2023-03-11T12:00:34.782Z,101119.97
2023-03-11T12:03:05.093Z,101149.94
2023-03-11T12:05:36.031Z,101135.94
2023-03-11T12:08:40.301Z,101142.97
2023-03-11T12:11:15.015Z,101162.25
2023-03-11T12:13:42.223Z,101164.88
2023-03-11T12:16:46.625Z,101171.00
2023-03-11T12:19:25.627Z,101171.00
2023-03-11T12:22:11.632Z,101157.72
2023-03-11T12:24:53.320Z,101172.59
2023-03-11T12:27:23.603Z,101181.41
2023-03-11T12:29:55.949Z,101176.16
2023-03-11T12:32:36.513Z,101160.25
2023-03-11T12:35:19.039Z,101181.31
2023-03-11T12:37:46.648Z,101161.16
2023-03-11T12:40:59.161Z,101181.34
2023-03-11T12:43:34.807Z,101187.44
2023-03-11T12:46:03.570Z,101149.69
2023-03-11T12:48:30.689Z,101159.44
2023-03-11T12:50:59.605Z,101170.91
2023-03-11T12:53:43.754Z,101139.34
2023-03-11T12:56:35.504Z,101170.06
2023-03-11T12:59:17.706Z,101168.34
2023-03-11T13:01:56.929Z,101176.19
2023-03-11T13:04:37.019Z,101176.19
2023-03-11T13:07:39.419Z,101164.81
2023-03-11T13:10:15.062Z,101169.19
2023-03-11T13:12:48.453Z,101170.84
2023-03-11T13:15:19.020Z,101139.25
2023-03-11T13:18:02.882Z,101145.41
2023-03-11T13:20:39.211Z,101170.00
2023-03-11T13:23:12.558Z,101177.06
2023-03-11T13:25:50.041Z,101177.00
2023-03-11T13:28:53.072Z,101163.00
2023-03-11T13:31:59.312Z,101178.78
2023-03-11T13:34:42.619Z,101148.97
2023-03-11T13:37:12.678Z,101168.31
2023-03-11T13:39:52.501Z,101175.34
2023-03-11T13:42:31.027Z,101147.13
2023-03-11T13:45:00.242Z,101169.84
2023-03-11T13:47:29.358Z,101179.66
2023-03-11T13:50:13.406Z,101184.03
2023-03-11T13:53:02.784Z,101168.34
2023-03-11T13:55:45.495Z,101159.50
2023-03-11T13:58:20.641Z,101162.16
2023-03-11T14:00:51.329Z,101170.03
2023-03-11T14:03:22.409Z,101159.53
2023-03-11T14:06:03.407Z,101170.16
2023-03-11T14:08:38.448Z,101178.09
2023-03-11T14:11:08.647Z,101187.66
2023-03-11T14:13:44.465Z,101155.13
2023-03-11T14:16:33.824Z,101164.78
2023-03-11T14:19:09.602Z,101180.66
2023-03-11T14:21:36.984Z,101183.19
2023-03-11T14:24:04.674Z,101188.44
2023-03-11T14:26:35.373Z,101180.63
2023-03-11T14:29:09.243Z,101171.69
2023-03-11T14:31:39.614Z,101173.44
2023-03-11T14:34:24.426Z,101205.19
2023-03-11T14:36:55.512Z,101208.75
2023-03-11T14:39:28.905Z,101215.69
2023-03-11T14:42:03.331Z,101219.97
2023-03-11T14:44:34.678Z,101222.59
2023-03-11T14:47:33.274Z,101240.09
2023-03-11T14:50:01.360Z,101243.53
2023-03-11T14:52:42.130Z,101249.69
2023-03-11T14:55:17.642Z,101242.72
2023-03-11T14:58:14.430Z,101247.88
2023-03-11T15:00:49.718Z,101252.41
2023-03-11T15:03:26.228Z,101246.13
2023-03-11T15:06:03.894Z,101240.84
2023-03-11T15:08:37.881Z,101243.34
2023-03-11T15:11:09.512Z,101242.59
2023-03-11T15:13:39.608Z,101243.53
2023-03-11T15:16:22.125Z,101230.38
2023-03-11T15:18:49.536Z,101248.78
2023-03-11T15:21:19.197Z,101263.56
2023-03-11T15:23:49.560Z,101272.41
2023-03-11T15:26:28.136Z,101259.13
2023-03-11T15:29:06.859Z,101271.38
2023-03-11T15:31:38.126Z,101267.81
2023-03-11T15:34:12.341Z,101228.91
2023-03-11T15:36:44.373Z,101263.22
2023-03-11T15:39:13.968Z,101264.31
2023-03-11T15:41:43.065Z,101270.38
2023-03-11T15:44:45.117Z,101283.31
2023-03-11T15:47:21.544Z,101276.41
2023-03-11T15:49:51.273Z,101266.88
2023-03-11T15:52:22.861Z,101275.56
2023-03-11T15:54:55.733Z,101283.56
2023-03-11T15:57:29.557Z,101284.41
2023-03-11T15:59:59.211Z,101285.41
2023-03-11T16:02:29.045Z,101283.47
2023-03-11T16:04:57.388Z,101292.47
2023-03-11T16:07:38.634Z,101262.34
2023-03-11T16:10:08.552Z,101280.88
2023-03-11T16:12:35.745Z,101291.22
2023-03-11T16:15:03.007Z,101300.88
2023-03-11T16:17:42.984Z,101312.34
2023-03-11T16:20:16.071Z,101313.19
2023-03-11T16:22:43.491Z,101302.56
2023-03-11T16:25:22.022Z,101320.94
2023-03-11T16:27:51.921Z,101311.25
2023-03-11T16:30:20.195Z,101294.69
2023-03-11T16:32:47.600Z,101318.31
2023-03-11T16:35:15.435Z,101303.47
2023-03-11T16:37:43.651Z,101304.38
2023-03-11T16:40:20.666Z,101317.56
2023-03-11T16:42:48.818Z,101321.00
2023-03-11T16:45:17.640Z,101316.56
2023-03-11T16:47:44.898Z,101328.84
2023-03-11T16:50:12.646Z,101312.09
2023-03-11T16:52:40.071Z,101333.22
2023-03-11T16:55:08.132Z,101327.94
2023-03-11T16:57:35.363Z,101322.69
2023-03-11T17:00:04.760Z,101329.69
2023-03-11T17:02:32.144Z,101349.03
2023-03-11T17:04:59.490Z,101347.13
2023-03-11T17:07:27.199Z,101330.34
2023-03-11T17:09:54.561Z,101332.09
2023-03-11T17:12:23.420Z,101352.22
2023-03-11T17:14:51.190Z,101354.06
2023-03-11T17:17:19.558Z,101353.03
2023-03-11T17:19:47.379Z,101358.34
2023-03-11T17:22:15.083Z,101370.56
2023-03-11T17:24:42.489Z,101345.03
2023-03-11T17:27:09.926Z,101365.31
2023-03-11T17:29:37.221Z,101371.41
2023-03-11T17:32:06.764Z,101384.53
2023-03-11T17:34:34.009Z,101380.97
2023-03-11T17:37:01.291Z,101382.78
2023-03-11T17:39:28.511Z,101388.00
2023-03-11T17:41:55.802Z,101395.00
2023-03-11T17:44:23.112Z,101390.53
2023-03-11T17:46:50.259Z,101378.16
2023-03-11T17:49:19.251Z,101387.88
2023-03-11T17:51:46.916Z,101370.88
2023-03-11T17:54:14.121Z,101393.00
2023-03-11T17:56:41.444Z,101392.94
2023-03-11T17:59:08.696Z,101397.25
2023-03-11T18:01:35.949Z,101391.03
2023-03-11T18:04:03.309Z,101397.22
2023-03-11T18:06:31.259Z,101378.53
2023-03-11T18:08:58.571Z,101390.94
2023-03-11T18:11:27.969Z,101386.56
2023-03-11T18:13:55.318Z,101385.50
2023-03-11T18:16:32.331Z,101406.66
2023-03-11T18:18:59.627Z,101392.44
2023-03-11T18:21:29.382Z,101412.75
2023-03-11T18:23:58.384Z,101412.81
2023-03-11T18:26:33.696Z,101396.91
2023-03-11T18:29:03.110Z,101406.66
2023-03-11T18:31:31.717Z,101390.66
2023-03-11T18:34:03.019Z,101404.00
2023-03-11T18:36:38.027Z,101409.28
2023-03-11T18:39:06.607Z,101391.66
2023-03-11T18:41:36.249Z,101414.63
2023-03-11T18:44:04.757Z,101422.38
2023-03-11T18:46:33.762Z,101431.13
2023-03-11T18:49:06.296Z,101416.94
2023-03-11T18:51:34.632Z,101421.41
2023-03-11T18:54:03.468Z,101418.06
2023-03-11T18:56:34.270Z,101393.38
2023-03-11T18:59:01.711Z,101416.25
2023-03-11T19:01:29.756Z,101413.50
2023-03-11T19:03:59.139Z,101415.28
2023-03-11T19:06:27.997Z,101403.84
2023-03-11T19:08:55.870Z,101402.13
2023-03-11T19:11:24.069Z,101410.81
2023-03-11T19:13:52.053Z,101430.81
2023-03-11T19:16:22.485Z,101424.69
2023-03-11T19:18:50.415Z,101429.94
2023-03-11T19:21:18.323Z,101435.16
2023-03-11T19:23:46.245Z,101426.38
2023-03-11T19:26:14.079Z,101436.91
2023-03-11T19:28:42.255Z,101421.84
2023-03-11T19:31:09.536Z,101445.59
2023-03-11T19:33:36.923Z,101439.53
2023-03-11T19:36:06.918Z,101441.19
2023-03-11T19:38:34.576Z,101449.03
2023-03-11T19:41:06.576Z,101448.13
2023-03-11T19:43:35.846Z,101411.19
2023-03-11T19:46:07.723Z,101442.94
2023-03-11T19:48:35.376Z,101435.84
2023-03-11T19:51:03.125Z,101450.75
2023-03-11T19:53:30.306Z,101444.59
2023-03-11T19:55:58.232Z,101442.81
2023-03-11T19:58:30.419Z,101448.06
2023-03-11T20:01:02.250Z,101445.38
2023-03-11T20:03:30.487Z,101461.16
2023-03-11T20:06:05.119Z,101464.66
2023-03-11T20:08:36.889Z,101458.41
2023-03-11T20:11:06.054Z,101468.13
2023-03-11T20:13:39.229Z,101475.03
2023-03-11T20:16:10.514Z,101467.28
2023-03-11T20:18:38.057Z,101470.53
2023-03-11T20:21:10.174Z,101481.09
2023-03-11T20:23:38.220Z,101469.53
2023-03-11T20:26:11.851Z,101498.63
2023-03-11T20:28:39.279Z,101493.38
2023-03-11T20:31:32.855Z,101496.03
2023-03-11T20:34:00.319Z,101473.84
2023-03-11T20:36:30.882Z,101507.38
2023-03-11T20:38:58.188Z,101504.59
2023-03-11T20:41:27.014Z,101517.16
2023-03-11T20:43:56.154Z,101518.78
2023-03-11T20:46:24.138Z,101509.88
2023-03-11T20:48:51.386Z,101535.38
2023-03-11T20:51:20.977Z,101514.97
2023-03-11T20:53:49.258Z,101536.22
2023-03-11T20:56:19.664Z,101515.75
2023-03-11T20:58:48.984Z,101533.34
2023-03-11T21:01:22.648Z,101535.16
2023-03-11T21:03:50.242Z,101529.94
2023-03-11T21:06:23.321Z,101530.81
2023-03-11T21:08:53.064Z,101535.16
2023-03-11T21:11:20.284Z,101524.47
2023-03-11T21:13:47.687Z,101531.53
2023-03-11T21:16:15.097Z,101541.09
2023-03-11T21:18:44.425Z,101527.03
2023-03-11T21:21:13.571Z,101534.81
2023-03-11T21:23:42.246Z,101542.72
2023-03-11T21:26:12.724Z,101539.13
2023-03-11T21:28:40.694Z,101540.06
2023-03-11T21:31:11.251Z,101527.78
2023-03-11T21:33:40.891Z,101544.44
2023-03-11T21:36:10.501Z,101555.09
2023-03-11T21:38:40.285Z,101545.28
2023-03-11T21:41:10.932Z,101556.72
2023-03-11T21:43:39.989Z,101546.19
2023-03-11T21:46:08.680Z,101541.81
2023-03-11T21:48:36.084Z,101538.31
2023-03-11T21:51:04.147Z,101536.41
2023-03-11T21:53:32.146Z,101550.56
2023-03-11T21:56:00.036Z,101550.53
2023-03-11T21:58:28.132Z,101548.84
2023-03-11T22:00:55.776Z,101545.28
2023-03-11T22:03:23.549Z,101547.03
2023-03-11T22:05:57.057Z,101557.47
2023-03-11T22:08:24.730Z,101554.00
2023-03-11T22:10:52.419Z,101559.16
2023-03-11T22:13:21.500Z,101564.53
2023-03-11T22:15:49.403Z,101554.84
2023-03-11T22:18:16.815Z,101553.06
2023-03-11T22:20:44.377Z,101526.66
2023-03-11T22:23:11.635Z,101540.94
2023-03-11T22:25:38.947Z,101541.78
2023-03-11T22:28:06.433Z,101552.19
2023-03-11T22:30:33.927Z,101555.53
2023-03-11T22:33:01.247Z,101556.50
2023-03-11T22:35:28.452Z,101563.59
2023-03-11T22:37:56.027Z,101568.78
2023-03-11T22:40:23.293Z,101574.91
2023-03-11T22:42:50.502Z,101573.09
2023-03-11T22:45:18.089Z,101558.88
2023-03-11T22:47:45.729Z,101566.81
2023-03-11T22:50:12.876Z,101569.63
2023-03-11T22:52:40.091Z,101575.72
2023-03-11T22:55:07.425Z,101555.28
2023-03-11T22:57:38.991Z,101575.72
2023-03-11T23:00:17.485Z,101559.91
2023-03-11T23:02:46.344Z,101560.59
2023-03-11T23:05:15.063Z,101564.16
2023-03-11T23:07:43.110Z,101563.25
2023-03-11T23:10:13.507Z,101566.91
2023-03-11T23:12:41.679Z,101560.69
2023-03-11T23:15:13.390Z,101576.56
2023-03-11T23:17:41.261Z,101570.44
2023-03-11T23:20:12.079Z,101556.19
2023-03-11T23:22:40.784Z,101575.66
2023-03-11T23:25:10.894Z,101571.22
2023-03-11T23:27:38.227Z,101579.09
2023-03-11T23:30:06.644Z,101580.13
2023-03-11T23:32:34.467Z,101586.38
2023-03-11T23:35:01.763Z,101583.50
2023-03-11T23:37:29.482Z,101575.66
2023-03-11T23:39:57.623Z,101579.22
2023-03-11T23:42:26.345Z,101581.88
2023-03-11T23:44:54.774Z,101593.38
2023-03-11T23:47:21.911Z,101586.28
2023-03-11T23:49:49.138Z,101584.50
2023-03-11T23:52:16.459Z,101589.81
2023-03-11T23:54:43.594Z,101572.06
2023-03-11T23:57:10.866Z,101577.44
2023-03-11T23:59:38.119Z,101590.75
